Time;durP1;ratioP1;P1;durP2;ratioP2;P2;SDS_P1;SDS_P2;PMS_P1;PMS_P2;Temp;Humidity;BMP_temperature;BMP_pressure;BME280_temperature;BME280_humidity;BME280_pressure;Samples;Min_cycle;Max_cycle;Signal;HPM_P1;HPM_P2
2022/06/05 00:00:25;;;;;;;6.93;4.60;;;;;;;;;;5117788;27;20450;-71
2022/06/05 00:03:01;;;;;;;9.43;5.30;;;;;;;;;;5118156;27;20465;-71
2022/06/05 00:05:32;;;;;;;9.80;4.97;;;;;;;;;;5117437;27;20518;-71
2022/06/05 00:08:06;;;;;;;9.90;6.63;;;;;;;;;;5116307;27;20466;-71
2022/06/05 00:10:36;;;;;;;7.30;5.80;;;;;;;;;;5118533;27;20516;-71
2022/06/05 00:13:10;;;;;;;7.60;4.87;;;;;;;;;;5118547;27;20867;-71
2022/06/05 00:15:41;;;;;;;7.90;5.57;;;;;;;;;;5118706;27;20485;-71
2022/06/05 00:18:14;;;;;;;7.63;5.50;;;;;;;;;;5118190;27;20553;-72
2022/06/05 00:20:43;;;;;;;9.70;5.90;;;;;;;;;;5117215;28;20525;-71
2022/06/05 00:23:11;;;;;;;9.40;6.30;;;;;;;;;;5117599;27;20466;-71
2022/06/05 00:25:49;;;;;;;9.17;5.70;;;;;;;;;;5117000;27;20458;-71
2022/06/05 00:28:20;;;;;;;7.63;4.70;;;;;;;;;;5117027;27;20470;-71
2022/06/05 00:30:52;;;;;;;8.73;5.90;;;;;;;;;;5117212;28;20878;-71
2022/06/05 00:33:23;;;;;;;7.10;5.50;;;;;;;;;;5117646;27;20468;-71
2022/06/05 00:35:54;;;;;;;7.20;5.90;;;;;;;;;;5117052;27;20773;-71
2022/06/05 00:38:25;;;;;;;8.33;5.73;;;;;;;;;;5117394;27;20769;-70
2022/06/05 00:41:12;;;;;;;7.53;5.93;;;;;;;;;;5117862;27;20449;-70
2022/06/05 00:43:39;;;;;;;10.17;6.03;;;;;;;;;;5104058;28;20529;-70
2022/06/05 00:46:07;;;;;;;6.20;5.30;;;;;;;;;;5096804;28;20551;-71
2022/06/05 00:48:35;;;;;;;7.37;5.17;;;;;;;;;;5096978;28;20486;-72
2022/06/05 00:51:03;;;;;;;8.43;5.80;;;;;;;;;;5114061;27;20455;-71
2022/06/05 00:53:31;;;;;;;9.97;5.60;;;;;;;;;;5116521;27;20659;-71
2022/06/05 00:56:00;;;;;;;7.80;6.37;;;;;;;;;;5115285;27;20482;-71
2022/06/05 00:58:28;;;;;;;8.40;6.50;;;;;;;;;;5114871;27;20467;-69
2022/06/05 01:01:00;;;;;;;11.37;6.53;;;;;;;;;;5110270;27;20469;-71
2022/06/05 01:03:28;;;;;;;7.17;5.40;;;;;;;;;;5105442;27;20542;-71
2022/06/05 01:05:57;;;;;;;10.30;6.57;;;;;;;;;;5109386;27;20509;-71
2022/06/05 01:08:29;;;;;;;8.10;6.17;;;;;;;;;;5101607;28;20467;-71
2022/06/05 01:11:01;;;;;;;9.03;5.63;;;;;;;;;;5112254;27;20464;-70
2022/06/05 01:13:40;;;;;;;10.37;5.90;;;;;;;;;;5096387;28;20940;-71
2022/06/05 01:16:24;;;;;;;8.53;6.07;;;;;;;;;;5098911;28;20543;-71
2022/06/05 01:18:53;;;;;;;7.43;5.83;;;;;;;;;;5108946;27;20532;-70
2022/06/05 01:21:39;;;;;;;9.30;6.10;;;;;;;;;;5096595;28;20448;-71
2022/06/05 01:24:22;;;;;;;8.93;6.90;;;;;;;;;;5113348;27;20480;-70
2022/06/05 01:26:55;;;;;;;8.00;6.80;;;;;;;;;;5117210;27;20462;-69
2022/06/05 01:29:41;;;;;;;10.43;6.20;;;;;;;;;;5116818;27;20860;-71
2022/06/05 01:32:10;;;;;;;8.30;5.83;;;;;;;;;;5116371;28;20764;-71
2022/06/05 01:34:40;;;;;;;9.37;6.87;;;;;;;;;;5116972;27;20450;-71
2022/06/05 01:37:11;;;;;;;11.83;6.20;;;;;;;;;;5116562;27;20483;-71
2022/06/05 01:39:41;;;;;;;7.47;5.93;;;;;;;;;;5116561;28;20462;-71
2022/06/05 01:42:15;;;;;;;8.90;5.77;;;;;;;;;;5116749;27;20454;-71
2022/06/05 01:44:44;;;;;;;9.73;6.37;;;;;;;;;;5117228;28;20851;-70
2022/06/05 01:47:15;;;;;;;10.53;6.60;;;;;;;;;;5114886;28;20506;-70
2022/06/05 01:49:46;;;;;;;8.50;6.90;;;;;;;;;;5116982;27;20527;-70
2022/06/05 01:52:24;;;;;;;10.77;7.30;;;;;;;;;;5117120;28;20808;-70
2022/06/05 01:55:00;;;;;;;10.80;6.97;;;;;;;;;;5117169;28;20553;-70
2022/06/05 01:57:39;;;;;;;8.13;7.17;;;;;;;;;;5115173;28;20437;-70
2022/06/05 02:00:11;;;;;;;10.10;6.40;;;;;;;;;;5116087;28;20557;-70
2022/06/05 02:02:42;;;;;;;8.40;6.80;;;;;;;;;;5116146;28;20458;-71
2022/06/05 02:05:11;;;;;;;9.30;7.50;;;;;;;;;;5115855;28;20466;-70
2022/06/05 02:07:41;;;;;;;10.80;8.10;;;;;;;;;;5115917;28;20609;-71
2022/06/05 02:10:11;;;;;;;14.00;8.10;;;;;;;;;;5115045;28;20462;-71
2022/06/05 02:12:41;;;;;;;8.63;7.20;;;;;;;;;;5116308;28;20454;-71
2022/06/05 02:15:09;;;;;;;9.70;7.07;;;;;;;;;;5116682;28;20988;-71
2022/06/05 02:17:37;;;;;;;11.97;7.77;;;;;;;;;;5115746;28;20468;-71
2022/06/05 02:20:07;;;;;;;8.70;7.10;;;;;;;;;;5116533;28;20885;-70
2022/06/05 02:22:37;;;;;;;8.73;6.77;;;;;;;;;;5115438;28;20451;-71
2022/06/05 02:25:05;;;;;;;10.93;6.13;;;;;;;;;;5115825;28;20719;-71
2022/06/05 02:27:46;;;;;;;10.93;6.63;;;;;;;;;;5116014;28;20877;-70
2022/06/05 02:30:16;;;;;;;10.60;7.27;;;;;;;;;;5116205;28;20453;-70
2022/06/05 02:32:48;;;;;;;9.40;7.67;;;;;;;;;;5115763;28;20450;-71
2022/06/05 02:35:24;;;;;;;9.50;8.23;;;;;;;;;;5114895;28;20973;-71
2022/06/05 02:37:59;;;;;;;13.87;9.10;;;;;;;;;;5115668;28;20443;-71
2022/06/05 02:40:32;;;;;;;8.63;7.50;;;;;;;;;;5116132;28;20460;-71
2022/06/05 02:43:06;;;;;;;8.40;7.50;;;;;;;;;;5115961;28;20505;-72
2022/06/05 02:45:37;;;;;;;12.93;8.73;;;;;;;;;;5116427;28;20736;-72
2022/06/05 02:48:10;;;;;;;12.20;9.50;;;;;;;;;;5116084;28;20463;-71
2022/06/05 02:50:40;;;;;;;11.03;7.77;;;;;;;;;;5115545;28;20791;-72
2022/06/05 02:53:10;;;;;;;9.67;7.67;;;;;;;;;;5115607;28;20455;-71
2022/06/05 02:55:37;;;;;;;10.90;7.70;;;;;;;;;;5115868;28;20478;-71
2022/06/05 02:58:13;;;;;;;8.57;6.70;;;;;;;;;;5116462;28;20527;-72
2022/06/05 03:03:27;;;;;;;8.90;7.97;;;;;;;;;;5116045;28;20450;-72
2022/06/05 03:03:28;;;;;;;10.43;8.07;;;;;;;;;;5115519;28;20556;-72
2022/06/05 03:05:56;;;;;;;9.43;7.60;;;;;;;;;;5115892;28;20454;-72
2022/06/05 03:08:24;;;;;;;10.50;6.83;;;;;;;;;;5115822;28;20471;-72
2022/06/05 03:10:51;;;;;;;9.73;8.37;;;;;;;;;;5115798;28;20867;-71
2022/06/05 03:13:22;;;;;;;11.10;7.17;;;;;;;;;;5116084;28;20462;-71
2022/06/05 03:15:50;;;;;;;11.07;7.13;;;;;;;;;;5115642;28;20483;-71
2022/06/05 03:18:18;;;;;;;10.10;8.10;;;;;;;;;;5115948;28;20583;-71
2022/06/05 03:20:45;;;;;;;11.03;7.97;;;;;;;;;;5118002;27;20465;-71
2022/06/05 03:23:13;;;;;;;11.93;7.80;;;;;;;;;;5119284;27;21070;-72
2022/06/05 03:25:43;;;;;;;10.40;8.17;;;;;;;;;;5119005;27;20460;-72
2022/06/05 03:28:13;;;;;;;12.10;8.57;;;;;;;;;;5119515;27;20459;-71
2022/06/05 03:30:43;;;;;;;10.20;7.43;;;;;;;;;;5118667;27;20878;-71
2022/06/05 03:33:11;;;;;;;12.60;8.47;;;;;;;;;;5119047;27;20466;-72
2022/06/05 03:35:39;;;;;;;11.40;8.50;;;;;;;;;;5118795;27;20451;-71
2022/06/05 03:38:07;;;;;;;9.90;8.20;;;;;;;;;;5118778;27;20471;-71
2022/06/05 03:40:35;;;;;;;12.30;8.53;;;;;;;;;;5118943;27;20463;-71
2022/06/05 03:43:03;;;;;;;14.23;8.97;;;;;;;;;;5118635;27;20487;-70
2022/06/05 03:45:31;;;;;;;11.10;8.70;;;;;;;;;;5114978;27;20467;-71
2022/06/05 03:48:00;;;;;;;13.73;9.17;;;;;;;;;;5118819;27;20471;-71
2022/06/05 03:50:28;;;;;;;11.77;9.93;;;;;;;;;;5119163;27;20489;-71
2022/06/05 03:52:56;;;;;;;13.40;8.10;;;;;;;;;;5119354;28;20516;-71
2022/06/05 03:55:27;;;;;;;10.03;7.97;;;;;;;;;;5118924;27;20455;-70
2022/06/05 03:57:54;;;;;;;12.80;8.80;;;;;;;;;;5118956;27;20491;-71
2022/06/05 04:00:23;;;;;;;13.53;8.63;;;;;;;;;;5118160;27;20541;-71
2022/06/05 04:02:51;;;;;;;11.27;8.57;;;;;;;;;;5118287;27;20546;-71
2022/06/05 04:05:21;;;;;;;14.37;9.70;;;;;;;;;;5118453;27;20459;-71
2022/06/05 04:07:49;;;;;;;16.43;8.23;;;;;;;;;;5117931;27;20455;-71
2022/06/05 04:10:17;;;;;;;11.27;9.30;;;;;;;;;;5118551;27;20953;-71
2022/06/05 04:12:46;;;;;;;14.03;9.93;;;;;;;;;;5118315;27;20462;-71
2022/06/05 04:15:14;;;;;;;9.67;8.30;;;;;;;;;;5118085;27;20969;-71
2022/06/05 04:17:41;;;;;;;10.70;7.60;;;;;;;;;;5117708;27;20929;-71
2022/06/05 04:20:10;;;;;;;11.30;7.93;;;;;;;;;;5117757;27;20753;-71
2022/06/05 04:22:40;;;;;;;9.17;7.93;;;;;;;;;;5118039;27;20470;-71
2022/06/05 04:25:09;;;;;;;14.00;8.47;;;;;;;;;;5117504;27;20507;-71
2022/06/05 04:27:38;;;;;;;10.70;7.67;;;;;;;;;;5117427;27;20470;-71
2022/06/05 04:30:06;;;;;;;13.10;8.87;;;;;;;;;;5117546;27;20850;-71
2022/06/05 04:32:34;;;;;;;11.83;8.40;;;;;;;;;;5116931;27;20461;-72
2022/06/05 04:35:01;;;;;;;10.70;7.83;;;;;;;;;;5118853;27;20534;-71
2022/06/05 04:37:30;;;;;;;12.60;9.57;;;;;;;;;;5118631;27;20590;-71
2022/06/05 04:40:00;;;;;;;11.10;8.07;;;;;;;;;;5119207;27;20494;-71
2022/06/05 04:42:27;;;;;;;8.37;7.07;;;;;;;;;;5119040;27;20469;-71
2022/06/05 04:44:55;;;;;;;9.57;8.27;;;;;;;;;;5119292;27;20454;-71
2022/06/05 04:47:23;;;;;;;9.20;8.17;;;;;;;;;;5118581;27;20459;-72
2022/06/05 04:49:51;;;;;;;11.63;8.13;;;;;;;;;;5118058;27;20869;-71
2022/06/05 04:52:18;;;;;;;13.93;8.23;;;;;;;;;;5117319;27;20549;-71
2022/06/05 04:54:46;;;;;;;9.80;6.63;;;;;;;;;;5117700;27;20454;-70
2022/06/05 04:57:15;;;;;;;8.37;7.47;;;;;;;;;;5110223;27;20563;-70
2022/06/05 04:59:43;;;;;;;6.93;5.97;;;;;;;;;;5100390;28;20859;-71
2022/06/05 05:02:13;;;;;;;10.27;8.27;;;;;;;;;;5097493;28;20467;-71
2022/06/05 05:04:41;;;;;;;10.77;6.90;;;;;;;;;;5097921;28;20483;-71
2022/06/05 05:07:09;;;;;;;7.80;6.93;;;;;;;;;;5096183;28;20902;-71
2022/06/05 05:09:36;;;;;;;8.43;7.00;;;;;;;;;;5096664;28;20556;-71
2022/06/05 05:12:04;;;;;;;11.50;6.30;;;;;;;;;;5096392;28;20467;-71
2022/06/05 05:14:33;;;;;;;8.17;6.90;;;;;;;;;;5096496;28;20452;-70
2022/06/05 05:17:01;;;;;;;7.67;6.10;;;;;;;;;;5097374;28;20479;-71
2022/06/05 05:19:29;;;;;;;8.00;6.83;;;;;;;;;;5115972;27;20855;-71
2022/06/05 05:21:57;;;;;;;8.47;6.80;;;;;;;;;;5117160;27;20479;-70
2022/06/05 05:24:24;;;;;;;6.90;6.10;;;;;;;;;;5117099;27;20447;-71
2022/06/05 05:26:52;;;;;;;7.70;5.63;;;;;;;;;;5116670;28;20474;-71
2022/06/05 05:29:19;;;;;;;7.50;5.07;;;;;;;;;;5116327;27;20451;-71
2022/06/05 05:31:49;;;;;;;6.40;5.20;;;;;;;;;;5117505;27;20459;-71
2022/06/05 05:34:17;;;;;;;5.60;4.70;;;;;;;;;;5116305;27;20489;-71
2022/06/05 05:36:44;;;;;;;6.37;4.77;;;;;;;;;;5117005;27;20514;-69
2022/06/05 05:42:06;;;;;;;5.13;4.63;;;;;;;;;;5115615;28;20983;-71
2022/06/05 05:44:35;;;;;;;7.00;4.93;;;;;;;;;;5115568;28;20515;-71
2022/06/05 05:47:06;;;;;;;6.90;5.07;;;;;;;;;;5117034;27;20485;-71
2022/06/05 05:49:33;;;;;;;5.53;4.30;;;;;;;;;;5116303;28;20483;-71
2022/06/05 05:52:01;;;;;;;5.60;4.20;;;;;;;;;;5116595;27;20469;-71
2022/06/05 05:54:29;;;;;;;7.63;4.53;;;;;;;;;;5116483;28;20527;-71
2022/06/05 05:56:57;;;;;;;6.97;4.40;;;;;;;;;;5116545;28;20482;-71
2022/06/05 05:59:26;;;;;;;6.00;4.33;;;;;;;;;;5116792;28;20471;-70
2022/06/05 06:01:53;;;;;;;5.53;4.20;;;;;;;;;;5116093;27;20470;-71
2022/06/05 06:04:23;;;;;;;6.07;4.97;;;;;;;;;;5117264;28;20839;-71
2022/06/05 06:06:51;;;;;;;6.20;4.00;;;;;;;;;;5116343;27;20463;-71
2022/06/05 06:09:19;;;;;;;4.40;3.80;;;;;;;;;;5115256;27;21124;-70
2022/06/05 06:11:47;;;;;;;6.27;4.10;;;;;;;;;;5115516;28;20454;-70
2022/06/05 06:14:18;;;;;;;6.27;3.90;;;;;;;;;;5115446;28;20462;-71
2022/06/05 06:16:48;;;;;;;4.40;3.70;;;;;;;;;;5115774;28;20532;-70
2022/06/05 06:19:16;;;;;;;4.50;3.60;;;;;;;;;;5115849;28;20455;-71
2022/06/05 06:21:45;;;;;;;4.90;3.77;;;;;;;;;;5115625;28;20545;-71
2022/06/05 06:24:13;;;;;;;4.87;4.10;;;;;;;;;;5115850;28;20463;-70
2022/06/05 06:26:41;;;;;;;5.20;4.43;;;;;;;;;;5115645;28;20679;-71
2022/06/05 06:29:09;;;;;;;3.73;3.30;;;;;;;;;;5116275;28;20933;-71
2022/06/05 06:31:38;;;;;;;4.27;3.70;;;;;;;;;;5115514;28;20967;-71
2022/06/05 06:34:05;;;;;;;6.40;3.67;;;;;;;;;;5114425;28;20454;-70
2022/06/05 06:36:33;;;;;;;9.43;3.90;;;;;;;;;;5114709;28;20462;-71
2022/06/05 06:39:03;;;;;;;4.90;4.40;;;;;;;;;;5115482;28;20885;-70
2022/06/05 06:41:31;;;;;;;5.00;3.73;;;;;;;;;;5115533;28;20973;-70
2022/06/05 06:43:59;;;;;;;4.80;3.50;;;;;;;;;;5115217;28;20457;-70
2022/06/05 06:46:29;;;;;;;3.43;2.97;;;;;;;;;;5114437;28;20451;-72
2022/06/05 06:48:57;;;;;;;4.40;3.50;;;;;;;;;;5114946;28;20519;-70
2022/06/05 06:51:25;;;;;;;5.60;3.80;;;;;;;;;;5116085;28;20458;-70
2022/06/05 06:53:53;;;;;;;4.20;3.13;;;;;;;;;;5115369;28;20458;-70
2022/06/05 06:56:24;;;;;;;3.73;3.33;;;;;;;;;;5119618;28;20465;-71
2022/06/05 06:58:51;;;;;;;7.13;3.43;;;;;;;;;;5117296;28;20521;-71
2022/06/05 07:01:19;;;;;;;4.90;3.37;;;;;;;;;;5119015;27;20914;-71
2022/06/05 07:03:47;;;;;;;3.97;2.60;;;;;;;;;;5119913;27;20484;-70
2022/06/05 07:06:15;;;;;;;4.27;2.93;;;;;;;;;;5119844;27;20446;-71
2022/06/05 07:08:44;;;;;;;3.70;2.87;;;;;;;;;;5120145;27;21110;-70
2022/06/05 07:11:12;;;;;;;6.53;3.27;;;;;;;;;;5117957;27;20790;-71
2022/06/05 07:13:42;;;;;;;4.37;3.57;;;;;;;;;;5118683;28;20459;-70
2022/06/05 07:16:11;;;;;;;4.23;2.90;;;;;;;;;;5118356;27;20881;-70
2022/06/05 07:18:39;;;;;;;4.03;3.07;;;;;;;;;;5119084;27;20482;-70
2022/06/05 07:21:10;;;;;;;6.60;3.50;;;;;;;;;;5119617;27;20442;-70
2022/06/05 07:23:40;;;;;;;4.20;2.43;;;;;;;;;;5118924;27;20465;-71
2022/06/05 07:26:12;;;;;;;13.93;10.53;;;;;;;;;;5118937;27;20454;-71
2022/06/05 07:28:56;;;;;;;6.00;2.53;;;;;;;;;;5120031;27;20551;-70
2022/06/05 07:31:24;;;;;;;3.40;2.50;;;;;;;;;;5117961;27;20467;-70
2022/06/05 07:33:51;;;;;;;4.27;2.67;;;;;;;;;;5118817;27;20473;-70
2022/06/05 07:36:21;;;;;;;2.80;2.20;;;;;;;;;;5112020;27;20451;-71
2022/06/05 07:38:49;;;;;;;4.03;3.40;;;;;;;;;;5115612;27;20479;-72
2022/06/05 07:41:22;;;;;;;7.90;2.60;;;;;;;;;;5117813;27;20455;-72
2022/06/05 07:43:51;;;;;;;3.70;2.20;;;;;;;;;;5118122;27;20640;-71
2022/06/05 07:46:22;;;;;;;6.20;1.77;;;;;;;;;;5117081;27;20541;-71
2022/06/05 07:48:52;;;;;;;3.97;2.20;;;;;;;;;;5117656;27;20458;-70
2022/06/05 07:54:30;;;;;;;2.77;2.10;;;;;;;;;;5118196;27;20446;-71
2022/06/05 07:57:00;;;;;;;2.90;2.20;;;;;;;;;;5117709;27;20745;-71
2022/06/05 07:59:32;;;;;;;3.50;2.63;;;;;;;;;;5119036;27;20463;-71
2022/06/05 08:02:00;;;;;;;4.50;3.00;;;;;;;;;;5112176;27;20511;-70
2022/06/05 08:04:31;;;;;;;3.07;2.37;;;;;;;;;;5109933;27;20509;-70
2022/06/05 08:07:00;;;;;;;3.53;2.10;;;;;;;;;;5113573;28;20479;-71
2022/06/05 08:09:29;;;;;;;2.87;2.17;;;;;;;;;;5117765;27;20450;-70
2022/06/05 08:11:57;;;;;;;4.33;2.70;;;;;;;;;;5116066;27;20454;-71
2022/06/05 08:14:25;;;;;;;4.00;2.57;;;;;;;;;;5116840;27;20520;-70
2022/06/05 08:16:54;;;;;;;2.70;2.13;;;;;;;;;;5117315;28;20731;-71
2022/06/05 08:19:23;;;;;;;5.60;2.80;;;;;;;;;;5115479;27;20459;-71
2022/06/05 08:21:52;;;;;;;3.70;2.30;;;;;;;;;;5117289;27;20462;-71
2022/06/05 08:24:20;;;;;;;3.77;2.10;;;;;;;;;;5116116;27;21118;-71
2022/06/05 08:26:47;;;;;;;4.43;2.20;;;;;;;;;;5116927;27;20474;-71
2022/06/05 08:29:18;;;;;;;3.67;2.93;;;;;;;;;;5117139;27;20454;-71
2022/06/05 08:31:46;;;;;;;3.03;2.10;;;;;;;;;;5116978;27;21469;-71
2022/06/05 08:34:16;;;;;;;3.40;2.80;;;;;;;;;;5112888;27;20447;-73
2022/06/05 08:36:43;;;;;;;2.93;2.23;;;;;;;;;;5112342;27;20447;-72
2022/06/05 08:42:03;;;;;;;4.00;2.53;;;;;;;;;;5116815;27;20868;-72
2022/06/05 08:44:34;;;;;;;3.00;2.00;;;;;;;;;;5116251;27;20470;-71
2022/06/05 08:47:03;;;;;;;3.97;2.53;;;;;;;;;;5115922;27;20522;-73
2022/06/05 08:49:38;;;;;;;3.40;2.10;;;;;;;;;;5116019;27;20466;-72
2022/06/05 08:52:15;;;;;;;2.80;2.20;;;;;;;;;;5115668;27;20482;-72
2022/06/05 08:54:49;;;;;;;3.43;2.50;;;;;;;;;;5115815;27;20469;-72
2022/06/05 08:57:19;;;;;;;3.37;2.50;;;;;;;;;;5115488;27;20465;-72
2022/06/05 08:59:48;;;;;;;3.60;3.27;;;;;;;;;;5113898;27;20804;-71
2022/06/05 09:02:19;;;;;;;3.90;2.30;;;;;;;;;;5114400;28;20515;-72
2022/06/05 09:04:51;;;;;;;3.53;2.10;;;;;;;;;;5116086;27;20474;-72
2022/06/05 09:07:21;;;;;;;6.03;2.50;;;;;;;;;;5115023;28;20794;-72
2022/06/05 09:09:51;;;;;;;3.60;2.30;;;;;;;;;;5113962;28;20943;-72
2022/06/05 09:12:23;;;;;;;3.60;2.20;;;;;;;;;;5114235;28;20447;-72
2022/06/05 09:15:09;;;;;;;;;;;;;;;;;;;;;
2022/06/05 09:17:40;;;;;;;4.43;3.80;;;;;;;;;;5115222;27;20866;-73
2022/06/05 09:20:14;;;;;;;3.17;2.37;;;;;;;;;;5116664;27;20543;-72
2022/06/05 09:22:46;;;;;;;4.00;2.20;;;;;;;;;;5114068;27;20766;-71
2022/06/05 09:25:25;;;;;;;3.57;2.93;;;;;;;;;;5114363;27;20455;-71
2022/06/05 09:28:00;;;;;;;3.23;2.40;;;;;;;;;;5115186;28;20885;-71
2022/06/05 09:30:31;;;;;;;2.77;2.10;;;;;;;;;;5113753;27;20462;-72
2022/06/05 09:33:17;;;;;;;4.50;3.97;;;;;;;;;;5109116;27;20471;-70
2022/06/05 09:35:52;;;;;;;4.00;2.57;;;;;;;;;;5112026;28;20466;-71
2022/06/05 09:38:23;;;;;;;6.43;4.33;;;;;;;;;;5115268;27;20477;-72
2022/06/05 09:41:01;;;;;;;3.30;2.30;;;;;;;;;;5116331;27;20459;-71
2022/06/05 09:43:41;;;;;;;3.50;2.93;;;;;;;;;;5114849;28;20481;-71
2022/06/05 09:46:21;;;;;;;3.93;2.70;;;;;;;;;;5106944;28;20712;-72
2022/06/05 09:48:52;;;;;;;2.87;2.30;;;;;;;;;;5102085;28;20463;-72
2022/06/05 09:51:22;;;;;;;7.63;2.00;;;;;;;;;;5096056;28;20495;-71
2022/06/05 09:53:55;;;;;;;2.90;2.20;;;;;;;;;;5110108;27;20443;-71
2022/06/05 09:56:30;;;;;;;2.80;2.00;;;;;;;;;;5107469;28;20481;-71
2022/06/05 09:59:06;;;;;;;4.20;3.73;;;;;;;;;;5115217;28;20482;-72
2022/06/05 10:01:36;;;;;;;3.63;2.30;;;;;;;;;;5115413;27;20474;-72
2022/06/05 10:04:06;;;;;;;3.77;2.43;;;;;;;;;;5115220;28;20455;-71
2022/06/05 10:06:41;;;;;;;6.83;2.70;;;;;;;;;;5108206;28;21031;-71
2022/06/05 10:09:12;;;;;;;3.13;2.57;;;;;;;;;;5115688;28;20511;-70
2022/06/05 10:11:42;;;;;;;4.30;3.07;;;;;;;;;;5097142;28;20460;-71
2022/06/05 10:14:24;;;;;;;3.33;2.50;;;;;;;;;;5095362;28;20724;-72
2022/06/05 10:17:02;;;;;;;3.40;2.70;;;;;;;;;;5095525;28;20855;-71
2022/06/05 10:19:41;;;;;;;3.30;2.10;;;;;;;;;;5093722;28;20490;-71
2022/06/05 10:22:15;;;;;;;3.67;2.53;;;;;;;;;;5094956;28;20582;-71
2022/06/05 10:24:52;;;;;;;3.10;2.50;;;;;;;;;;5102948;28;20745;-71
2022/06/05 10:27:21;;;;;;;3.73;3.03;;;;;;;;;;5115695;28;20455;-71
2022/06/05 10:29:52;;;;;;;3.90;2.40;;;;;;;;;;5098936;28;20471;-71
2022/06/05 10:32:25;;;;;;;3.47;2.10;;;;;;;;;;5099295;28;20556;-71
2022/06/05 10:34:59;;;;;;;3.50;3.20;;;;;;;;;;5098608;28;20455;-71
2022/06/05 10:37:31;;;;;;;2.77;2.10;;;;;;;;;;5098001;28;20463;-71
2022/06/05 10:40:03;;;;;;;3.60;2.63;;;;;;;;;;5097846;28;20462;-71
2022/06/05 10:42:35;;;;;;;3.07;1.80;;;;;;;;;;5098885;28;20451;-71
2022/06/05 10:45:21;;;;;;;3.30;2.10;;;;;;;;;;5097902;28;20467;-71
2022/06/05 10:48:09;;;;;;;5.13;2.67;;;;;;;;;;5098664;28;20467;-71
2022/06/05 10:50:39;;;;;;;3.70;2.37;;;;;;;;;;5093085;28;20876;-71
2022/06/05 10:53:13;;;;;;;4.73;3.27;;;;;;;;;;5102784;27;20454;-71
2022/06/05 10:55:47;;;;;;;3.00;2.50;;;;;;;;;;5119354;27;20449;-71
2022/06/05 10:58:19;;;;;;;4.50;3.07;;;;;;;;;;5118286;27;20847;-72
2022/06/05 11:00:57;;;;;;;3.57;2.60;;;;;;;;;;5119558;27;20493;-72
2022/06/05 11:03:28;;;;;;;3.87;2.67;;;;;;;;;;5118789;27;20473;-72
2022/06/05 11:06:05;;;;;;;3.60;2.80;;;;;;;;;;5119016;27;20455;-72
2022/06/05 11:08:43;;;;;;;2.67;2.13;;;;;;;;;;5097616;28;20559;-71
2022/06/05 11:14:13;;;;;;;3.33;2.70;;;;;;;;;;5138758;27;20449;-72
2022/06/05 11:16:43;;;;;;;4.13;3.03;;;;;;;;;;5138556;27;20449;-71
2022/06/05 11:19:15;;;;;;;3.40;2.53;;;;;;;;;;5119472;27;20485;-71
2022/06/05 11:21:49;;;;;;;4.30;3.10;;;;;;;;;;5119056;27;20465;-72
2022/06/05 11:24:23;;;;;;;3.97;2.67;;;;;;;;;;5118646;27;20446;-72
2022/06/05 11:26:54;;;;;;;3.80;1.87;;;;;;;;;;5115881;28;20558;-72
2022/06/05 11:29:25;;;;;;;2.70;2.30;;;;;;;;;;5117066;28;20488;-72
2022/06/05 11:31:58;;;;;;;4.80;2.60;;;;;;;;;;5117781;27;20550;-72
2022/06/05 11:34:32;;;;;;;3.53;2.50;;;;;;;;;;5118503;27;20455;-71
2022/06/05 11:37:12;;;;;;;3.10;1.97;;;;;;;;;;5117739;27;20458;-72
2022/06/05 11:39:51;;;;;;;2.93;2.07;;;;;;;;;;5117352;27;20492;-72
2022/06/05 11:42:26;;;;;;;3.10;1.90;;;;;;;;;;5118175;27;20458;-72
2022/06/05 11:44:57;;;;;;;2.83;2.10;;;;;;;;;;5118063;27;20606;-72
2022/06/05 11:47:34;;;;;;;4.37;2.80;;;;;;;;;;5117670;27;20713;-71
2022/06/05 11:50:05;;;;;;;3.97;2.70;;;;;;;;;;5096373;28;21070;-71
2022/06/05 11:52:36;;;;;;;3.80;2.20;;;;;;;;;;5097041;28;20447;-71
2022/06/05 11:55:08;;;;;;;3.47;2.17;;;;;;;;;;5096030;28;20820;-71
2022/06/05 11:57:39;;;;;;;5.20;2.30;;;;;;;;;;5097083;28;20901;-71
2022/06/05 12:00:14;;;;;;;2.83;1.80;;;;;;;;;;5111221;28;20527;-71
2022/06/05 12:02:51;;;;;;;4.40;2.10;;;;;;;;;;5117019;27;20442;-71
2022/06/05 12:05:22;;;;;;;4.93;2.20;;;;;;;;;;5115496;27;20462;-70
2022/06/05 12:07:51;;;;;;;3.03;2.30;;;;;;;;;;5117265;27;20881;-71
2022/06/05 12:10:28;;;;;;;3.60;2.90;;;;;;;;;;5116124;27;20520;-70
2022/06/05 12:13:02;;;;;;;2.70;2.13;;;;;;;;;;5116373;27;20503;-71
2022/06/05 12:15:40;;;;;;;5.13;2.43;;;;;;;;;;5116886;27;20462;-70
2022/06/05 12:18:10;;;;;;;5.03;3.03;;;;;;;;;;5115591;27;20447;-71
2022/06/05 12:20:43;;;;;;;4.57;2.87;;;;;;;;;;5117288;27;20918;-70
2022/06/05 12:23:16;;;;;;;3.73;1.93;;;;;;;;;;5117738;27;20550;-71
2022/06/05 12:25:50;;;;;;;3.43;2.77;;;;;;;;;;5116403;27;20494;-70
2022/06/05 12:28:20;;;;;;;9.77;5.53;;;;;;;;;;5116584;27;20473;-70
2022/06/05 12:30:54;;;;;;;3.77;2.63;;;;;;;;;;5117232;27;20446;-71
2022/06/05 12:33:29;;;;;;;5.20;2.20;;;;;;;;;;5103143;27;20550;-70
2022/06/05 12:36:06;;;;;;;4.10;2.20;;;;;;;;;;5097010;28;20747;-70
2022/06/05 12:38:38;;;;;;;3.50;2.33;;;;;;;;;;5095809;28;20528;-70
2022/06/05 12:41:12;;;;;;;3.70;2.90;;;;;;;;;;5094502;28;20462;-70
2022/06/05 12:43:47;;;;;;;3.60;2.60;;;;;;;;;;5095176;28;20456;-71
2022/06/05 12:46:18;;;;;;;3.23;2.23;;;;;;;;;;5096140;28;20447;-71
2022/06/05 12:48:52;;;;;;;2.80;2.50;;;;;;;;;;5097822;28;20478;-71
2022/06/05 12:51:23;;;;;;;3.50;2.33;;;;;;;;;;5095295;28;20458;-70
2022/06/05 12:53:54;;;;;;;3.80;2.43;;;;;;;;;;5095674;28;20944;-70
2022/06/05 12:56:27;;;;;;;5.00;3.13;;;;;;;;;;5096441;28;20466;-71
2022/06/05 12:58:57;;;;;;;3.97;3.47;;;;;;;;;;5110788;27;20482;-70
2022/06/05 13:01:27;;;;;;;3.27;2.90;;;;;;;;;;5116186;27;20511;-70
2022/06/05 13:03:57;;;;;;;3.37;2.20;;;;;;;;;;5115555;27;20516;-70
2022/06/05 13:06:31;;;;;;;4.03;2.87;;;;;;;;;;5114808;27;20446;-70
2022/06/05 13:09:01;;;;;;;3.70;2.87;;;;;;;;;;5117099;27;20470;-70
2022/06/05 13:11:35;;;;;;;3.80;2.90;;;;;;;;;;5115850;27;20966;-72
2022/06/05 13:14:14;;;;;;;3.87;2.50;;;;;;;;;;5113770;27;20458;-72
2022/06/05 13:16:46;;;;;;;2.43;2.20;;;;;;;;;;5106229;28;20450;-70
2022/06/05 13:19:21;;;;;;;3.20;2.57;;;;;;;;;;5114496;27;20476;-71
2022/06/05 13:21:53;;;;;;;2.80;2.40;;;;;;;;;;5115443;27;20738;-71
2022/06/05 13:24:27;;;;;;;2.73;2.20;;;;;;;;;;5115611;27;20459;-71
2022/06/05 13:27:03;;;;;;;4.10;2.93;;;;;;;;;;5115229;27;20450;-71
2022/06/05 13:29:36;;;;;;;2.40;2.00;;;;;;;;;;5110519;28;20545;-71
2022/06/05 13:32:07;;;;;;;2.90;2.30;;;;;;;;;;5115891;27;20863;-71
2022/06/05 13:34:41;;;;;;;3.47;2.43;;;;;;;;;;5118334;27;20470;-70
2022/06/05 13:37:11;;;;;;;2.97;2.10;;;;;;;;;;5118046;27;20500;-71
2022/06/05 13:39:43;;;;;;;3.20;2.30;;;;;;;;;;5115814;27;20482;-71
2022/06/05 13:42:15;;;;;;;2.80;2.20;;;;;;;;;;5114570;27;20490;-71
2022/06/05 13:44:43;;;;;;;2.40;1.77;;;;;;;;;;5099939;28;20512;-71
2022/06/05 13:47:18;;;;;;;2.87;2.10;;;;;;;;;;5095437;28;20451;-71
2022/06/05 13:49:50;;;;;;;2.73;1.80;;;;;;;;;;5095308;28;20898;-71
2022/06/05 13:52:27;;;;;;;4.40;2.27;;;;;;;;;;5093527;28;20746;-71
2022/06/05 13:54:58;;;;;;;3.37;2.43;;;;;;;;;;5093499;28;20463;-71
2022/06/05 13:57:28;;;;;;;2.77;1.90;;;;;;;;;;5093863;28;20456;-70
2022/06/05 13:59:59;;;;;;;2.63;1.70;;;;;;;;;;5092759;28;20490;-71
2022/06/05 14:02:31;;;;;;;2.90;1.80;;;;;;;;;;5107389;28;20455;-71
2022/06/05 14:05:00;;;;;;;2.50;1.90;;;;;;;;;;5094927;28;20513;-71
2022/06/05 14:07:30;;;;;;;2.67;1.97;;;;;;;;;;5094294;28;20459;-71
2022/06/05 14:10:06;;;;;;;3.70;1.83;;;;;;;;;;5094435;28;20876;-71
2022/06/05 14:12:50;;;;;;;4.83;1.80;;;;;;;;;;5093641;28;20883;-71
2022/06/05 14:15:27;;;;;;;2.47;1.57;;;;;;;;;;5093434;28;20521;-71
2022/06/05 14:17:56;;;;;;;2.70;1.43;;;;;;;;;;5107910;28;20450;-71
2022/06/05 14:20:25;;;;;;;2.27;1.37;;;;;;;;;;5115106;28;20529;-70
2022/06/05 14:22:55;;;;;;;2.43;1.40;;;;;;;;;;5114719;28;20459;-71
2022/06/05 14:25:26;;;;;;;2.13;1.30;;;;;;;;;;5113819;28;20842;-71
2022/06/05 14:27:58;;;;;;;2.67;1.33;;;;;;;;;;5112832;28;20454;-71
2022/06/05 14:30:27;;;;;;;5.60;1.97;;;;;;;;;;5112782;28;20459;-71
2022/06/05 14:32:56;;;;;;;2.33;1.40;;;;;;;;;;5113103;28;20451;-71
2022/06/05 14:35:32;;;;;;;2.67;1.50;;;;;;;;;;5112119;28;20465;-72
2022/06/05 14:38:04;;;;;;;2.60;1.83;;;;;;;;;;5114606;28;20552;-71
2022/06/05 14:40:40;;;;;;;2.07;1.50;;;;;;;;;;5112543;28;20864;-72
2022/06/05 14:43:16;;;;;;;2.40;1.70;;;;;;;;;;5114752;28;21056;-71
2022/06/05 14:45:46;;;;;;;2.60;1.60;;;;;;;;;;5114000;28;20462;-70
2022/06/05 14:48:16;;;;;;;2.30;1.53;;;;;;;;;;5114397;28;20712;-71
2022/06/05 14:50:53;;;;;;;2.40;1.63;;;;;;;;;;5114491;28;20458;-70
2022/06/05 14:53:29;;;;;;;2.63;1.97;;;;;;;;;;5113328;28;20712;-70
2022/06/05 14:58:52;;;;;;;2.63;2.03;;;;;;;;;;5112988;28;20869;-71
2022/06/05 15:01:23;;;;;;;2.27;1.83;;;;;;;;;;5114432;28;20501;-72
2022/06/05 15:03:53;;;;;;;2.80;1.70;;;;;;;;;;5114531;28;21068;-71
2022/06/05 15:06:25;;;;;;;2.53;1.93;;;;;;;;;;5114687;28;20447;-71
2022/06/05 15:08:54;;;;;;;2.70;1.77;;;;;;;;;;5114553;28;20467;-71
2022/06/05 15:11:26;;;;;;;2.80;1.53;;;;;;;;;;5114946;28;20455;-71
2022/06/05 15:13:58;;;;;;;2.30;1.53;;;;;;;;;;5114943;28;20472;-71
2022/06/05 15:16:32;;;;;;;2.57;1.80;;;;;;;;;;5115103;27;20451;-71
2022/06/05 15:19:01;;;;;;;2.20;1.40;;;;;;;;;;5115966;27;20900;-71